createdAt,value
2023-03-11T00:00:06.232Z,97403.88
2023-03-11T00:00:16.173Z,97394.77
2023-03-11T00:00:26.300Z,97405.40
2023-03-11T00:00:36.190Z,97416.23
2023-03-11T00:00:47.300Z,97414.03
2023-03-11T00:00:56.264Z,97420.12
2023-03-11T00:01:06.286Z,97416.06
2023-03-11T00:01:16.212Z,97417.38
2023-03-11T00:01:26.176Z,97416.56
2023-03-11T00:01:36.276Z,97414.22
2023-03-11T00:01:46.323Z,97416.98
2023-03-11T00:01:56.323Z,97421.80
2023-03-11T00:02:06.282Z,97414.07
2023-03-11T00:02:16.248Z,97419.44
2023-03-11T00:02:26.379Z,97416.08
2023-03-11T00:02:36.231Z,97417.53
2023-03-11T00:02:46.180Z,97419.75
2023-03-11T00:02:56.284Z,97429.27
2023-03-11T00:03:06.256Z,97421.54
2023-03-11T00:03:16.198Z,97419.97
2023-03-11T00:03:26.214Z,97416.55
2023-03-11T00:03:36.265Z,97420.95
2023-03-11T00:03:46.305Z,97410.28
2023-03-11T00:03:56.280Z,97429.95
2023-03-11T00:04:06.281Z,97420.34
2023-03-11T00:04:16.243Z,97425.85
2023-03-11T00:04:26.229Z,97425.14
2023-03-11T00:04:36.226Z,97433.11
2023-03-11T00:04:46.256Z,97425.44
2023-03-11T00:04:56.289Z,97430.73
2023-03-11T00:05:06.341Z,97427.64
2023-03-11T00:05:16.302Z,97429.10
2023-03-11T00:05:26.373Z,97436.38
2023-03-11T00:05:36.352Z,97435.73
2023-03-11T00:05:46.325Z,97427.71
2023-03-11T00:05:56.193Z,97437.65
2023-03-11T00:06:06.281Z,97433.83
2023-03-11T00:06:16.193Z,97430.36
2023-03-11T00:06:26.232Z,97427.41
2023-03-11T00:06:36.289Z,97427.59
2023-03-11T00:06:46.238Z,97433.27
2023-03-11T00:06:56.181Z,97436.20
2023-03-11T00:07:06.207Z,97440.56
2023-03-11T00:07:16.183Z,97421.88
2023-03-11T00:07:26.280Z,97427.80
2023-03-11T00:07:36.282Z,97442.67
2023-03-11T00:07:46.279Z,97440.89
2023-03-11T00:07:56.179Z,97429.34
2023-03-11T00:08:06.181Z,97430.09
2023-03-11T00:08:16.286Z,97442.06
2023-03-11T00:08:26.275Z,97439.87
2023-03-11T00:08:36.240Z,97435.71
2023-03-11T00:08:46.255Z,97440.05
2023-03-11T00:08:56.263Z,97453.38
2023-03-11T00:09:08.517Z,97448.17
2023-03-11T00:09:16.207Z,97449.55
2023-03-11T00:09:26.301Z,97442.87
2023-03-11T00:09:36.299Z,97440.80
2023-03-11T00:09:46.223Z,97452.25
2023-03-11T00:09:56.175Z,97442.75
2023-03-11T00:10:06.195Z,97451.06
2023-03-11T00:10:16.261Z,97443.31
2023-03-11T00:10:28.017Z,97449.49
2023-03-11T00:10:36.197Z,97436.89
2023-03-11T00:10:46.220Z,97435.75
2023-03-11T00:10:56.200Z,97457.19
2023-03-11T00:11:06.264Z,97441.16
2023-03-11T00:11:16.215Z,97456.78
2023-03-11T00:11:26.307Z,97454.08
2023-03-11T00:11:36.286Z,97460.52
2023-03-11T00:11:46.208Z,97450.52
2023-03-11T00:11:56.271Z,97453.23
2023-03-11T00:12:06.218Z,97472.37
2023-03-11T00:12:16.225Z,97461.61
2023-03-11T00:12:26.191Z,97462.78
2023-03-11T00:12:36.297Z,97461.73
2023-03-11T00:12:46.204Z,97453.34
2023-03-11T00:12:56.290Z,97473.28
2023-03-11T00:13:06.269Z,97446.16
2023-03-11T00:13:16.240Z,97451.45
2023-03-11T00:13:26.228Z,97440.22
2023-03-11T00:13:36.215Z,97462.83
2023-03-11T00:13:46.273Z,97471.94
2023-03-11T00:13:56.304Z,97474.97
2023-03-11T00:14:06.269Z,97471.23
2023-03-11T00:14:16.299Z,97450.32
2023-03-11T00:14:26.219Z,97454.75
2023-03-11T00:14:36.262Z,97476.75
2023-03-11T00:14:46.296Z,97462.59
2023-03-11T00:14:56.248Z,97470.41
2023-03-11T00:15:06.309Z,97481.42
2023-03-11T00:15:16.322Z,97475.45
2023-03-11T00:15:26.255Z,97470.41
2023-03-11T00:15:36.227Z,97482.17
2023-03-11T00:15:46.242Z,97470.41
2023-03-11T00:15:56.361Z,97472.00
2023-03-11T00:16:06.268Z,97476.73
2023-03-11T00:16:16.241Z,97474.34
2023-03-11T00:16:26.279Z,97468.48
2023-03-11T00:16:36.338Z,97479.45
2023-03-11T00:16:46.309Z,97488.95
2023-03-11T00:16:56.204Z,97486.92
2023-03-11T00:17:06.325Z,97473.97
2023-03-11T00:17:16.190Z,97471.24
2023-03-11T00:17:26.285Z,97479.91
2023-03-11T00:17:36.227Z,97506.32
2023-03-11T00:17:46.304Z,97463.23
2023-03-11T00:17:56.173Z,97481.91
2023-03-11T00:18:06.254Z,97479.66
2023-03-11T00:18:16.302Z,97487.56
2023-03-11T00:18:26.206Z,97489.52
2023-03-11T00:18:36.254Z,97491.52
2023-03-11T00:18:46.236Z,97487.12
2023-03-11T00:18:56.216Z,97492.56
2023-03-11T00:19:06.320Z,97483.21
2023-03-11T00:19:16.256Z,97487.70
2023-03-11T00:19:26.276Z,97492.36
2023-03-11T00:19:36.200Z,97491.45
2023-03-11T00:19:46.173Z,97487.48
2023-03-11T00:19:56.264Z,97491.14
2023-03-11T00:20:06.304Z,97488.05
2023-03-11T00:20:16.242Z,97492.84
2023-03-11T00:20:26.249Z,97503.06
2023-03-11T00:20:36.210Z,97499.66
2023-03-11T00:20:46.170Z,97501.71
2023-03-11T00:20:56.309Z,97500.57
2023-03-11T00:21:06.258Z,97515.61
2023-03-11T00:21:16.178Z,97502.78
2023-03-11T00:21:26.218Z,97505.22
2023-03-11T00:21:36.283Z,97503.20
2023-03-11T00:21:46.266Z,97504.45
2023-03-11T00:21:56.288Z,97512.59
2023-03-11T00:22:06.258Z,97509.58
2023-03-11T00:22:16.261Z,97516.41
2023-03-11T00:22:26.254Z,97515.19
2023-03-11T00:22:36.288Z,97512.34
2023-03-11T00:22:46.271Z,97498.28
2023-03-11T00:22:56.308Z,97512.88
2023-03-11T00:23:06.217Z,97507.44
2023-03-11T00:23:16.235Z,97521.17
2023-03-11T00:23:26.269Z,97508.31
2023-03-11T00:23:36.171Z,97509.68
2023-03-11T00:23:46.228Z,97509.73
2023-03-11T00:23:56.215Z,97523.81
2023-03-11T00:24:06.303Z,97530.89
2023-03-11T00:24:16.237Z,97526.18
2023-03-11T00:24:26.299Z,97514.47
2023-03-11T00:24:36.291Z,97517.05
2023-03-11T00:24:46.291Z,97515.21
2023-03-11T00:24:56.262Z,97519.32
2023-03-11T00:25:06.195Z,97508.14
2023-03-11T00:25:16.170Z,97512.97
2023-03-11T00:25:26.293Z,97521.47
2023-03-11T00:25:36.274Z,97519.03
2023-03-11T00:25:46.273Z,97517.20
2023-03-11T00:25:56.199Z,97532.98
2023-03-11T00:26:06.309Z,97534.39
2023-03-11T00:26:16.231Z,97527.78
2023-03-11T00:26:26.187Z,97508.30
2023-03-11T00:26:36.179Z,97513.67
2023-03-11T00:26:46.182Z,97522.94
2023-03-11T00:26:56.262Z,97506.41
2023-03-11T00:27:06.279Z,97522.62
2023-03-11T00:27:16.260Z,97530.87
2023-03-11T00:27:26.232Z,97532.03
2023-03-11T00:27:36.182Z,97533.34
2023-03-11T00:27:46.230Z,97531.12
2023-03-11T00:27:56.319Z,97535.75
2023-03-11T00:28:06.172Z,97536.08
2023-03-11T00:28:16.246Z,97535.09
2023-03-11T00:28:26.285Z,97541.83
2023-03-11T00:28:36.231Z,97542.07
2023-03-11T00:28:46.189Z,97535.41
2023-03-11T00:28:56.171Z,97539.16
2023-03-11T00:29:06.271Z,97535.75
2023-03-11T00:29:16.283Z,97547.08
2023-03-11T00:29:26.198Z,97530.41
2023-03-11T00:29:36.226Z,97545.58
2023-03-11T00:29:46.249Z,97538.25
2023-03-11T00:29:56.228Z,97540.95
2023-03-11T00:30:06.333Z,97539.32
2023-03-11T00:30:16.262Z,97543.71
2023-03-11T00:30:26.178Z,97546.80
2023-03-11T00:30:36.309Z,97542.66
2023-03-11T00:30:46.294Z,97550.63
2023-03-11T00:30:56.283Z,97543.96
2023-03-11T00:31:06.257Z,97546.89
2023-03-11T00:31:16.320Z,97545.66
2023-03-11T00:31:26.237Z,97560.79
2023-03-11T00:31:36.209Z,97564.38
2023-03-11T00:31:46.304Z,97554.86
2023-03-11T00:31:56.208Z,97562.23
2023-03-11T00:32:06.230Z,97561.20
2023-03-11T00:32:16.305Z,97552.74
2023-03-11T00:32:26.325Z,97561.97
2023-03-11T00:32:36.342Z,97566.36
2023-03-11T00:32:46.233Z,97564.41
2023-03-11T00:32:56.193Z,97554.16
2023-03-11T00:33:06.169Z,97560.02
2023-03-11T00:33:16.258Z,97566.61
2023-03-11T00:33:26.205Z,97571.82
2023-03-11T00:33:36.252Z,97552.22
2023-03-11T00:33:46.185Z,97569.70
2023-03-11T00:33:56.243Z,97558.75
2023-03-11T00:34:06.273Z,97561.88
2023-03-11T00:34:16.193Z,97573.45
2023-03-11T00:34:26.265Z,97567.47
2023-03-11T00:34:36.279Z,97568.28
2023-03-11T00:34:46.210Z,97562.84
2023-03-11T00:34:56.309Z,97562.42
2023-03-11T00:35:06.289Z,97571.87
2023-03-11T00:35:16.218Z,97569.08
2023-03-11T00:35:26.177Z,97568.69
2023-03-11T00:35:36.233Z,97570.48
2023-03-11T00:35:46.203Z,97563.20
2023-03-11T00:35:56.209Z,97571.70
2023-03-11T00:36:06.265Z,97584.20
2023-03-11T00:36:16.185Z,97562.84
2023-03-11T00:36:26.278Z,97566.83
2023-03-11T00:36:36.221Z,97576.48
2023-03-11T00:36:46.288Z,97572.42
2023-03-11T00:36:56.282Z,97585.27
2023-03-11T00:37:06.285Z,97578.82
2023-03-11T00:37:16.204Z,97573.45
2023-03-11T00:37:26.187Z,97561.41
2023-03-11T00:37:36.260Z,97576.48
2023-03-11T00:37:46.175Z,97577.48
2023-03-11T00:37:56.272Z,97577.80
2023-03-11T00:38:06.239Z,97575.97
2023-03-11T00:38:16.312Z,97588.98
2023-03-11T00:38:26.277Z,97584.89
2023-03-11T00:38:36.322Z,97587.27
2023-03-11T00:38:46.437Z,97583.78
2023-03-11T00:38:56.382Z,97586.88
2023-03-11T00:39:06.276Z,97586.88
2023-03-11T00:39:16.270Z,97589.53
2023-03-11T00:39:26.302Z,97602.00
2023-03-11T00:39:36.182Z,97593.19
2023-03-11T00:39:46.195Z,97580.98
2023-03-11T00:39:56.284Z,97589.22
2023-03-11T00:40:06.203Z,97587.05
2023-03-11T00:40:16.169Z,97589.33
2023-03-11T00:40:26.315Z,97591.58
2023-03-11T00:40:36.340Z,97592.09
2023-03-11T00:40:46.209Z,97607.77
2023-03-11T00:40:56.283Z,97608.67
2023-03-11T00:41:06.278Z,97589.10
2023-03-11T00:41:16.246Z,97590.27
2023-03-11T00:41:26.267Z,97589.27
2023-03-11T00:41:36.255Z,97610.66
2023-03-11T00:41:46.282Z,97593.78
2023-03-11T00:41:56.198Z,97605.50
2023-03-11T00:42:06.184Z,97586.31
2023-03-11T00:42:16.300Z,97604.64
2023-03-11T00:42:26.209Z,97585.59
2023-03-11T00:42:36.204Z,97598.64
2023-03-11T00:42:46.270Z,97591.97
2023-03-11T00:42:56.272Z,97601.84
2023-03-11T00:43:06.242Z,97599.45
2023-03-11T00:43:16.218Z,97610.42
2023-03-11T00:43:26.211Z,97605.12
2023-03-11T00:43:36.195Z,97601.80
2023-03-11T00:43:46.285Z,97611.62
2023-03-11T00:43:56.303Z,97612.54
2023-03-11T00:44:06.288Z,97610.03
2023-03-11T00:44:16.199Z,97621.94
2023-03-11T00:44:26.268Z,97614.95
2023-03-11T00:44:36.191Z,97611.22
2023-03-11T00:44:46.249Z,97606.64
2023-03-11T00:44:56.233Z,97596.84
2023-03-11T00:45:06.224Z,97598.16
2023-03-11T00:45:16.222Z,97615.50
2023-03-11T00:45:26.254Z,97607.48
2023-03-11T00:45:36.304Z,97607.77
2023-03-11T00:45:46.300Z,97608.19
2023-03-11T00:45:56.326Z,97612.41
2023-03-11T00:46:06.292Z,97611.03
2023-03-11T00:46:16.353Z,97617.74
2023-03-11T00:46:26.245Z,97616.12
2023-03-11T00:46:36.299Z,97613.41
2023-03-11T00:46:46.185Z,97614.71
2023-03-11T00:46:56.321Z,97615.06
2023-03-11T00:47:06.274Z,97612.95
2023-03-11T00:47:16.255Z,97616.28
2023-03-11T00:47:26.297Z,97620.73
2023-03-11T00:47:36.223Z,97620.16
2023-03-11T00:47:46.303Z,97623.03
2023-03-11T00:47:56.296Z,97626.02
2023-03-11T00:48:06.176Z,97613.84
2023-03-11T00:48:16.271Z,97614.55
2023-03-11T00:48:26.244Z,97616.85
2023-03-11T00:48:36.298Z,97608.07
2023-03-11T00:48:46.268Z,97614.24
2023-03-11T00:48:56.178Z,97623.72
2023-03-11T00:49:06.254Z,97629.01
2023-03-11T00:49:16.187Z,97628.27
2023-03-11T00:49:26.295Z,97616.93
2023-03-11T00:49:36.213Z,97621.00
2023-03-11T00:49:46.207Z,97623.89
2023-03-11T00:49:56.296Z,97631.41
2023-03-11T00:50:06.245Z,97617.49
2023-03-11T00:50:16.222Z,97627.17
2023-03-11T00:50:26.258Z,97630.09
2023-03-11T00:50:36.224Z,97624.96
2023-03-11T00:50:46.171Z,97644.97
2023-03-11T00:50:56.214Z,97619.14
2023-03-11T00:51:06.178Z,97627.28
2023-03-11T00:51:16.266Z,97618.39
2023-03-11T00:51:26.278Z,97613.60
2023-03-11T00:51:36.217Z,97620.16
2023-03-11T00:51:46.190Z,97618.61
2023-03-11T00:51:56.249Z,97620.67
2023-03-11T00:52:06.304Z,97628.08
2023-03-11T00:52:16.207Z,97615.64
2023-03-11T00:52:26.243Z,97624.02
2023-03-11T00:52:36.197Z,97627.00
2023-03-11T00:52:46.206Z,97628.24
2023-03-11T00:52:56.184Z,97632.97
2023-03-11T00:53:06.289Z,97632.73
2023-03-11T00:53:16.270Z,97622.22
2023-03-11T00:53:26.174Z,97632.23
2023-03-11T00:53:36.259Z,97624.26
2023-03-11T00:53:46.249Z,97622.63
2023-03-11T00:53:56.190Z,97621.47
2023-03-11T00:54:06.191Z,97622.93
2023-03-11T00:54:16.220Z,97623.20
2023-03-11T00:54:26.278Z,97629.00
2023-03-11T00:54:36.226Z,97625.80
2023-03-11T00:54:46.294Z,97629.50
2023-03-11T00:54:56.179Z,97641.33
2023-03-11T00:55:06.238Z,97629.07
2023-03-11T00:55:16.252Z,97621.52
2023-03-11T00:55:26.297Z,97631.41
2023-03-11T00:55:36.295Z,97628.08
2023-03-11T00:55:46.245Z,97629.00
2023-03-11T00:55:56.295Z,97635.80
2023-03-11T00:56:06.205Z,97634.66
2023-03-11T00:56:16.297Z,97637.84
2023-03-11T00:56:26.213Z,97640.33
2023-03-11T00:56:36.271Z,97640.52
2023-03-11T00:56:46.288Z,97648.19
2023-03-11T00:56:56.238Z,97641.90
2023-03-11T00:57:06.197Z,97631.58
2023-03-11T00:57:16.252Z,97646.70
2023-03-11T00:57:26.278Z,97649.95
2023-03-11T00:57:36.220Z,97661.83
2023-03-11T00:57:46.229Z,97646.33
2023-03-11T00:57:56.265Z,97646.91
2023-03-11T00:58:06.230Z,97652.00
2023-03-11T00:58:16.179Z,97649.91
2023-03-11T00:58:26.201Z,97638.37
2023-03-11T00:58:36.178Z,97648.85
2023-03-11T00:58:46.181Z,97659.67
2023-03-11T00:58:56.279Z,97645.22
2023-03-11T00:59:06.201Z,97652.54
2023-03-11T00:59:16.203Z,97649.34
2023-03-11T00:59:26.217Z,97648.93
2023-03-11T00:59:36.215Z,97650.56
2023-03-11T00:59:46.285Z,97652.64
2023-03-11T00:59:56.186Z,97662.03
2023-03-11T01:00:06.211Z,97659.10
2023-03-11T01:00:16.291Z,97650.48
2023-03-11T01:00:26.175Z,97655.11
2023-03-11T01:00:36.241Z,97656.82
2023-03-11T01:00:46.272Z,97651.05
2023-03-11T01:00:56.360Z,97657.48
2023-03-11T01:01:06.234Z,97656.98
2023-03-11T01:01:16.256Z,97661.22
2023-03-11T01:01:26.349Z,97657.70
2023-03-11T01:01:36.317Z,97666.58
2023-03-11T01:01:46.313Z,97657.43
2023-03-11T01:01:56.221Z,97657.05
2023-03-11T01:02:06.206Z,97663.66
2023-03-11T01:02:16.269Z,97665.27
2023-03-11T01:02:26.209Z,97661.74
2023-03-11T01:02:36.267Z,97663.15
2023-03-11T01:02:46.216Z,97671.89
2023-03-11T01:02:56.293Z,97658.73
2023-03-11T01:03:06.292Z,97658.90
2023-03-11T01:03:16.303Z,97667.95
2023-03-11T01:03:26.254Z,97667.80
2023-03-11T01:03:36.205Z,97659.34
2023-03-11T01:03:46.196Z,97666.20
2023-03-11T01:03:56.171Z,97664.23
2023-03-11T01:04:06.330Z,97663.22
2023-03-11T01:04:16.284Z,97655.75
2023-03-11T01:04:26.238Z,97665.08
2023-03-11T01:04:36.233Z,97671.91
2023-03-11T01:04:46.300Z,97671.13
2023-03-11T01:04:56.386Z,97661.73
2023-03-11T01:05:06.182Z,97664.71
2023-03-11T01:05:16.192Z,97673.34
2023-03-11T01:05:26.302Z,97674.73
2023-03-11T01:05:36.248Z,97663.65
2023-03-11T01:05:46.253Z,97665.60
2023-03-11T01:05:56.197Z,97671.78
2023-03-11T01:06:06.275Z,97661.80
2023-03-11T01:06:16.270Z,97667.45
2023-03-11T01:06:32.736Z,97665.56
2023-03-11T01:06:45.091Z,97673.28
2023-03-11T01:06:46.274Z,97672.17
2023-03-11T01:06:56.202Z,97667.92
2023-03-11T01:07:06.234Z,97673.39
2023-03-11T01:07:16.188Z,97674.80
2023-03-11T01:07:26.191Z,97667.20
2023-03-11T01:07:36.204Z,97671.17
2023-03-11T01:07:46.263Z,97672.92
2023-03-11T01:07:56.296Z,97674.47
2023-03-11T01:08:06.188Z,97672.01
2023-03-11T01:08:16.240Z,97672.20
2023-03-11T01:08:26.217Z,97675.62
2023-03-11T01:08:36.165Z,97668.28
2023-03-11T01:08:46.238Z,97670.36
2023-03-11T01:08:56.242Z,97667.44
2023-03-11T01:09:06.177Z,97674.92
2023-03-11T01:09:16.191Z,97673.94
2023-03-11T01:09:26.201Z,97672.44
2023-03-11T01:09:36.292Z,97669.97
2023-03-11T01:09:46.222Z,97667.94
2023-03-11T01:09:56.191Z,97676.42
2023-03-11T01:10:06.306Z,97671.11
2023-03-11T01:10:16.275Z,97678.62
2023-03-11T01:10:26.287Z,97678.84
2023-03-11T01:10:36.233Z,97680.52
2023-03-11T01:10:46.250Z,97666.75
2023-03-11T01:10:56.275Z,97676.95
2023-03-11T01:11:06.308Z,97666.30
2023-03-11T01:11:16.241Z,97677.28
2023-03-11T01:11:26.212Z,97675.11
2023-03-11T01:11:36.298Z,97674.95
2023-03-11T01:11:46.247Z,97676.56
2023-03-11T01:11:56.227Z,97682.03
2023-03-11T01:12:06.292Z,97675.77
2023-03-11T01:12:16.226Z,97679.67
2023-03-11T01:12:26.186Z,97679.67
2023-03-11T01:12:36.187Z,97686.39
2023-03-11T01:12:46.184Z,97687.82
2023-03-11T01:12:56.264Z,97681.26
2023-03-11T01:13:06.168Z,97677.03
2023-03-11T01:13:16.275Z,97679.63
2023-03-11T01:13:26.242Z,97685.38
2023-03-11T01:13:36.224Z,97679.39
2023-03-11T01:13:46.198Z,97673.98
2023-03-11T01:13:56.197Z,97679.77
2023-03-11T01:14:06.343Z,97685.03
2023-03-11T01:14:16.219Z,97680.67
2023-03-11T01:14:26.193Z,97684.80
2023-03-11T01:14:36.238Z,97678.21
2023-03-11T01:14:46.219Z,97685.31
2023-03-11T01:14:56.267Z,97684.34
2023-03-11T01:15:06.178Z,97674.31
2023-03-11T01:15:16.231Z,97684.06
2023-03-11T01:15:26.265Z,97678.59
2023-03-11T01:15:36.305Z,97685.42
2023-03-11T01:15:46.267Z,97692.89
2023-03-11T01:15:56.315Z,97682.31
2023-03-11T01:16:06.244Z,97692.47
2023-03-11T01:16:16.327Z,97683.19
2023-03-11T01:16:26.222Z,97680.23
2023-03-11T01:16:36.267Z,97688.92
2023-03-11T01:16:46.254Z,97688.16
2023-03-11T01:16:56.181Z,97697.75
2023-03-11T01:17:06.218Z,97694.05
2023-03-11T01:17:16.251Z,97701.09
2023-03-11T01:17:26.214Z,97675.16
2023-03-11T01:17:36.191Z,97684.56
2023-03-11T01:17:46.300Z,97692.00
2023-03-11T01:17:56.203Z,97698.18
2023-03-11T01:18:06.284Z,97693.41
2023-03-11T01:18:16.204Z,97697.88
2023-03-11T01:18:26.335Z,97691.20
2023-03-11T01:18:36.289Z,97697.39
2023-03-11T01:18:46.259Z,97696.90
2023-03-11T01:18:56.171Z,97705.70
2023-03-11T01:19:06.227Z,97700.85
2023-03-11T01:19:16.173Z,97700.83
2023-03-11T01:19:26.307Z,97695.05
2023-03-11T01:19:36.289Z,97705.11
2023-03-11T01:19:46.217Z,97709.83
2023-03-11T01:19:56.270Z,97700.32
2023-03-11T01:20:06.283Z,97686.95
2023-03-11T01:20:16.209Z,97700.97
2023-03-11T01:20:26.240Z,97700.23
2023-03-11T01:20:36.275Z,97700.56
2023-03-11T01:20:46.257Z,97701.48
2023-03-11T01:20:56.292Z,97706.91
2023-03-11T01:21:06.184Z,97708.69
2023-03-11T01:21:16.275Z,97711.54
2023-03-11T01:21:26.305Z,97703.81
2023-03-11T01:21:36.218Z,97700.34
2023-03-11T01:21:46.171Z,97717.47
2023-03-11T01:21:56.209Z,97701.86
2023-03-11T01:22:06.202Z,97677.77
2023-03-11T01:22:16.199Z,97691.66
2023-03-11T01:22:26.247Z,97700.70
2023-03-11T01:22:36.217Z,97704.77
2023-03-11T01:22:46.222Z,97700.16
2023-03-11T01:22:56.311Z,97711.30
2023-03-11T01:23:06.290Z,97714.95
2023-03-11T01:23:16.294Z,97717.17
2023-03-11T01:23:26.273Z,97711.66
2023-03-11T01:23:36.205Z,97711.73
2023-03-11T01:23:46.351Z,97712.66
2023-03-11T01:23:56.213Z,97722.92
2023-03-11T01:24:06.244Z,97720.65
2023-03-11T01:24:16.308Z,97713.88
2023-03-11T01:24:26.212Z,97725.95
2023-03-11T01:24:36.286Z,97724.72
2023-03-11T01:24:46.217Z,97721.55
2023-03-11T01:24:56.266Z,97721.09
2023-03-11T01:25:06.258Z,97721.80
2023-03-11T01:25:16.236Z,97722.80
2023-03-11T01:25:26.206Z,97718.69
2023-03-11T01:25:36.272Z,97728.39
2023-03-11T01:25:46.293Z,97717.59
2023-03-11T01:25:56.222Z,97717.02
2023-03-11T01:26:06.260Z,97717.95
2023-03-11T01:26:16.192Z,97719.14
2023-03-11T01:26:26.181Z,97726.95
2023-03-11T01:26:36.303Z,97727.03
2023-03-11T01:26:46.255Z,97733.84
2023-03-11T01:26:56.213Z,97734.19
2023-03-11T01:27:06.230Z,97727.59
2023-03-11T01:27:16.220Z,97732.88
2023-03-11T01:27:26.275Z,97741.34
2023-03-11T01:27:36.236Z,97742.25
2023-03-11T01:27:46.236Z,97730.93
2023-03-11T01:27:56.270Z,97717.84
2023-03-11T01:28:06.217Z,97739.34
2023-03-11T01:28:16.213Z,97727.98
2023-03-11T01:28:26.249Z,97728.85
2023-03-11T01:28:36.185Z,97731.13
2023-03-11T01:28:46.303Z,97730.78
2023-03-11T01:28:56.271Z,97738.75
2023-03-11T01:29:06.291Z,97736.73
2023-03-11T01:29:16.169Z,97736.06
2023-03-11T01:29:26.283Z,97751.52
2023-03-11T01:29:36.226Z,97723.71
2023-03-11T01:29:46.169Z,97742.05
2023-03-11T01:29:56.218Z,97733.55
2023-03-11T01:30:06.249Z,97735.39
2023-03-11T01:30:16.185Z,97739.26
2023-03-11T01:30:26.260Z,97738.53
2023-03-11T01:30:36.228Z,97720.64
2023-03-11T01:30:46.261Z,97734.09
2023-03-11T01:30:56.333Z,97740.67
2023-03-11T01:31:06.266Z,97738.97
2023-03-11T01:31:16.402Z,97747.67
2023-03-11T01:31:26.368Z,97744.21
2023-03-11T01:31:36.278Z,97739.49
2023-03-11T01:31:46.217Z,97736.56
2023-03-11T01:31:56.215Z,97747.40
2023-03-11T01:32:06.246Z,97752.95
2023-03-11T01:32:16.271Z,97750.00
2023-03-11T01:32:26.235Z,97743.92
2023-03-11T01:32:36.318Z,97750.05
2023-03-11T01:32:46.372Z,97741.52
2023-03-11T01:32:56.284Z,97746.82
2023-03-11T01:33:06.249Z,97743.55
2023-03-11T01:33:16.244Z,97756.77
2023-03-11T01:33:26.277Z,97745.17
2023-03-11T01:33:36.210Z,97749.18
2023-03-11T01:33:46.242Z,97747.37
2023-03-11T01:33:56.305Z,97753.77
2023-03-11T01:34:06.242Z,97749.21
2023-03-11T01:34:16.190Z,97753.36
2023-03-11T01:34:26.271Z,97753.52
2023-03-11T01:34:36.258Z,97754.23
2023-03-11T01:34:46.175Z,97753.58
2023-03-11T01:34:56.193Z,97751.62
2023-03-11T01:35:06.182Z,97762.47
2023-03-11T01:35:16.273Z,97763.50
2023-03-11T01:35:26.385Z,97753.58
2023-03-11T01:35:36.278Z,97758.78
2023-03-11T01:35:46.305Z,97753.52
2023-03-11T01:35:56.227Z,97756.23
2023-03-11T01:36:06.198Z,97761.89
2023-03-11T01:36:16.178Z,97753.14
2023-03-11T01:36:26.307Z,97748.86
2023-03-11T01:36:36.278Z,97759.29
2023-03-11T01:36:46.194Z,97759.95
2023-03-11T01:36:56.241Z,97758.53
2023-03-11T01:37:06.307Z,97768.47
2023-03-11T01:37:16.211Z,97762.91
2023-03-11T01:37:26.191Z,97750.56
2023-03-11T01:37:36.182Z,97752.52
2023-03-11T01:37:46.197Z,97758.48
2023-03-11T01:37:56.186Z,97750.68
2023-03-11T01:38:06.285Z,97750.98
2023-03-11T01:38:16.227Z,97756.29
2023-03-11T01:38:26.250Z,97760.35
2023-03-11T01:38:36.200Z,97756.02
2023-03-11T01:38:46.293Z,97763.38
2023-03-11T01:38:56.182Z,97759.92
2023-03-11T01:39:06.228Z,97751.00
2023-03-11T01:39:16.232Z,97757.75
2023-03-11T01:39:26.264Z,97753.80
2023-03-11T01:39:36.175Z,97764.41
2023-03-11T01:39:46.271Z,97763.84
2023-03-11T01:39:56.172Z,97763.80
2023-03-11T01:40:06.303Z,97757.27
2023-03-11T01:40:16.270Z,97757.95
2023-03-11T01:40:26.312Z,97760.98
2023-03-11T01:40:36.253Z,97759.20
2023-03-11T01:40:46.174Z,97765.91
2023-03-11T01:40:56.202Z,97761.98
2023-03-11T01:41:06.286Z,97761.03
2023-03-11T01:41:16.256Z,97760.14
2023-03-11T01:41:26.241Z,97757.05
2023-03-11T01:41:36.306Z,97759.78
2023-03-11T01:41:46.280Z,97763.36
2023-03-11T01:41:56.236Z,97761.39
2023-03-11T01:42:06.310Z,97758.95
2023-03-11T01:42:16.299Z,97763.66
2023-03-11T01:42:26.187Z,97771.08
2023-03-11T01:42:36.187Z,97775.63
2023-03-11T01:42:46.287Z,97769.05
2023-03-11T01:42:56.186Z,97766.45
2023-03-11T01:43:06.230Z,97763.41
2023-03-11T01:43:16.256Z,97769.75
2023-03-11T01:43:26.227Z,97757.83
2023-03-11T01:43:36.173Z,97766.72
2023-03-11T01:43:46.221Z,97763.77
2023-03-11T01:43:56.313Z,97761.33
2023-03-11T01:44:06.281Z,97768.52
2023-03-11T01:44:16.217Z,97758.03
2023-03-11T01:44:26.279Z,97769.08
2023-03-11T01:44:36.260Z,97761.50
2023-03-11T01:44:46.311Z,97762.61
2023-03-11T01:44:56.267Z,97770.14
2023-03-11T01:45:06.183Z,97768.41
2023-03-11T01:45:16.219Z,97770.84
2023-03-11T01:45:26.275Z,97775.32
2023-03-11T01:45:36.236Z,97777.48
2023-03-11T01:45:46.235Z,97778.00
2023-03-11T01:45:56.177Z,97772.05
2023-03-11T01:46:06.210Z,97774.97
2023-03-11T01:46:16.298Z,97774.48
2023-03-11T01:46:26.259Z,97778.55
2023-03-11T01:46:36.332Z,97774.16
2023-03-11T01:46:46.319Z,97772.55
2023-03-11T01:46:56.256Z,97774.12
2023-03-11T01:47:06.225Z,97773.91
2023-03-11T01:47:16.280Z,97776.12
2023-03-11T01:47:26.188Z,97786.23
2023-03-11T01:47:36.276Z,97777.99
2023-03-11T01:47:46.284Z,97775.55
2023-03-11T01:47:56.216Z,97783.30
2023-03-11T01:48:06.202Z,97782.88
2023-03-11T01:48:16.278Z,97790.08
2023-03-11T01:48:26.254Z,97780.13
2023-03-11T01:48:36.208Z,97788.97
2023-03-11T01:48:46.291Z,97781.98
2023-03-11T01:48:56.287Z,97772.30
2023-03-11T01:49:06.300Z,97770.98
2023-03-11T01:49:16.252Z,97781.77
2023-03-11T01:49:26.193Z,97778.02
2023-03-11T01:49:36.226Z,97785.61
2023-03-11T01:49:46.241Z,97787.89
2023-03-11T01:49:56.172Z,97785.31
2023-03-11T01:50:06.188Z,97792.44
2023-03-11T01:50:16.231Z,97789.70
2023-03-11T01:50:26.223Z,97797.62
2023-03-11T01:50:36.320Z,97785.61
2023-03-11T01:50:46.301Z,97787.42
2023-03-11T01:50:56.244Z,97791.41
2023-03-11T01:51:06.262Z,97792.14
2023-03-11T01:51:16.302Z,97800.08
2023-03-11T01:51:26.219Z,97798.92
2023-03-11T01:51:36.212Z,97786.97
2023-03-11T01:51:46.239Z,97786.16
2023-03-11T01:51:56.240Z,97783.98
2023-03-11T01:52:06.288Z,97779.98
2023-03-11T01:52:16.299Z,97789.57
2023-03-11T01:52:26.266Z,97788.92
2023-03-11T01:52:36.304Z,97794.94
2023-03-11T01:52:46.248Z,97790.66
2023-03-11T01:52:56.265Z,97792.66
2023-03-11T01:53:06.274Z,97787.70
2023-03-11T01:53:16.313Z,97782.07
2023-03-11T01:53:26.276Z,97790.11
2023-03-11T01:53:36.186Z,97789.46
2023-03-11T01:53:46.307Z,97798.11
2023-03-11T01:53:56.276Z,97793.80
2023-03-11T01:54:06.252Z,97788.52
2023-03-11T01:54:16.284Z,97789.14
2023-03-11T01:54:26.285Z,97789.57
2023-03-11T01:54:36.307Z,97792.77
2023-03-11T01:54:46.256Z,97800.70
2023-03-11T01:54:56.253Z,97801.60
2023-03-11T01:55:06.196Z,97807.21
2023-03-11T01:55:16.247Z,97798.84
2023-03-11T01:55:26.265Z,97804.56
2023-03-11T01:55:36.198Z,97802.66
2023-03-11T01:55:46.251Z,97794.61
2023-03-11T01:55:56.245Z,97793.06
2023-03-11T01:56:06.296Z,97805.34
2023-03-11T01:56:16.277Z,97802.25
2023-03-11T01:56:26.232Z,97804.28
2023-03-11T01:56:36.199Z,97805.18
2023-03-11T01:56:46.269Z,97802.34
2023-03-11T01:56:56.278Z,97799.95
2023-03-11T01:57:06.289Z,97795.20
2023-03-11T01:57:16.222Z,97804.50
2023-03-11T01:57:26.186Z,97809.62